createdAt,value
2022-10-21T00:01:16.726Z,1.97
2022-10-21T00:03:45.647Z,2.43
2022-10-21T00:06:13.872Z,2.47
2022-10-21T00:08:42.586Z,1.60
2022-10-21T00:11:11.604Z,1.50
2022-10-21T00:13:41.531Z,2.73
2022-10-21T00:16:15.139Z,2.17
2022-10-21T00:18:45.227Z,1.60
2022-10-21T00:21:16.180Z,0.80
2022-10-21T00:23:44.719Z,3.17
2022-10-21T00:26:13.991Z,2.10
2022-10-21T00:28:44.026Z,3.13
2022-10-21T00:31:14.747Z,1.37
2022-10-21T00:33:43.536Z,2.07
2022-10-21T00:36:15.677Z,1.43
2022-10-21T00:38:46.704Z,2.90
2022-10-21T00:41:15.923Z,2.60
2022-10-21T00:44:03.934Z,2.03
2022-10-21T00:46:40.105Z,1.50
2022-10-21T00:49:15.141Z,2.30
2022-10-21T00:51:44.176Z,3.40
2022-10-21T00:54:12.833Z,2.17
2022-10-21T00:56:45.479Z,1.57
2022-10-21T00:59:16.112Z,2.10
2022-10-21T01:01:44.406Z,1.43
2022-10-21T01:04:12.987Z,3.03
2022-10-21T01:06:44.275Z,2.60
2022-10-21T01:09:13.900Z,1.30
2022-10-21T01:11:46.588Z,3.03
2022-10-21T01:14:48.193Z,1.47
2022-10-21T01:17:47.173Z,1.67
2022-10-21T01:20:40.439Z,3.93
2022-10-21T01:23:41.385Z,1.43
2022-10-21T01:26:46.979Z,1.03
2022-10-21T01:29:59.450Z,1.60
2022-10-21T01:32:41.423Z,1.73
2022-10-21T01:35:13.998Z,2.70
2022-10-21T01:37:52.517Z,1.27
2022-10-21T01:40:25.879Z,3.40
2022-10-21T01:42:56.603Z,3.40
2022-10-21T01:45:31.061Z,2.63
2022-10-21T01:48:04.105Z,1.57
2022-10-21T01:50:38.481Z,2.03
2022-10-21T01:53:10.473Z,2.20
2022-10-21T01:55:41.585Z,2.00
2022-10-21T01:58:16.331Z,4.47
2022-10-21T02:00:48.563Z,3.20
2022-10-21T02:03:25.052Z,4.60
2022-10-21T02:05:53.499Z,3.30
2022-10-21T02:08:21.788Z,1.70
2022-10-21T02:10:54.366Z,4.03
2022-10-21T02:13:28.072Z,4.27
2022-10-21T02:16:01.220Z,1.83
2022-10-21T02:18:31.144Z,1.77
2022-10-21T02:21:03.720Z,2.23
2022-10-21T02:23:40.036Z,4.03
2022-10-21T02:26:08.912Z,2.47
2022-10-21T02:28:37.675Z,4.33
2022-10-21T02:31:18.948Z,3.43
2022-10-21T02:33:59.473Z,2.37
2022-10-21T02:36:35.815Z,4.17
2022-10-21T02:39:11.165Z,3.20
2022-10-21T02:41:42.067Z,1.80
2022-10-21T02:44:11.091Z,1.60
2022-10-21T02:46:42.089Z,4.10
2022-10-21T02:49:12.271Z,3.03
2022-10-21T02:51:41.374Z,2.07
2022-10-21T02:54:11.982Z,2.37
2022-10-21T02:56:43.156Z,5.27
2022-10-21T02:59:11.748Z,3.07
2022-10-21T03:01:42.120Z,3.77
2022-10-21T03:04:12.039Z,4.30
2022-10-21T03:06:40.221Z,3.07
2022-10-21T03:09:10.966Z,2.80
2022-10-21T03:11:40.482Z,2.60
2022-10-21T03:14:08.684Z,2.93
2022-10-21T03:16:37.051Z,2.63
2022-10-21T03:19:05.813Z,3.70
2022-10-21T03:21:35.603Z,2.13
2022-10-21T03:24:08.071Z,4.23
2022-10-21T03:26:43.576Z,5.20
2022-10-21T03:29:12.333Z,4.43
2022-10-21T03:31:40.514Z,2.97
2022-10-21T03:34:09.028Z,4.00
2022-10-21T03:36:38.834Z,1.97
2022-10-21T03:39:07.396Z,1.93
2022-10-21T03:41:35.988Z,3.37
2022-10-21T03:44:04.282Z,4.40
2022-10-21T03:46:32.715Z,2.37
2022-10-21T03:49:04.293Z,2.90
2022-10-21T03:51:35.521Z,2.40
2022-10-21T03:54:05.384Z,2.87
2022-10-21T03:56:34.480Z,3.93
2022-10-21T03:59:02.624Z,3.27
2022-10-21T04:01:31.010Z,3.97
2022-10-21T04:03:59.771Z,2.73
2022-10-21T04:06:28.053Z,3.17
2022-10-21T04:08:57.119Z,4.07
2022-10-21T04:11:27.053Z,4.07
2022-10-21T04:13:55.235Z,2.73
2022-10-21T04:16:24.587Z,2.50
2022-10-21T04:18:52.935Z,3.63
2022-10-21T04:23:54.673Z,3.10
2022-10-21T04:26:22.991Z,2.63
2022-10-21T04:28:52.554Z,3.70
2022-10-21T04:31:20.910Z,5.00
2022-10-21T04:33:52.014Z,4.27
2022-10-21T04:36:20.268Z,5.00
2022-10-21T04:38:48.651Z,3.50
2022-10-21T04:41:17.245Z,7.40
2022-10-21T04:43:45.519Z,5.00
2022-10-21T04:46:17.270Z,6.43
2022-10-21T04:48:45.666Z,4.00
2022-10-21T04:51:13.917Z,5.63
2022-10-21T04:53:42.612Z,4.23
2022-10-21T04:56:11.437Z,5.80
2022-10-21T04:58:40.366Z,6.73
2022-10-21T05:01:08.962Z,4.40
2022-10-21T05:03:40.802Z,6.90
2022-10-21T05:06:08.956Z,4.03
2022-10-21T05:08:37.391Z,4.17
2022-10-21T05:11:05.760Z,5.73
2022-10-21T05:13:34.563Z,3.70
2022-10-21T05:16:04.059Z,5.43
2022-10-21T05:18:32.625Z,5.40
2022-10-21T05:21:02.302Z,5.80
2022-10-21T05:23:30.456Z,6.90
2022-10-21T05:25:58.556Z,4.77
2022-10-21T05:28:26.880Z,4.73
2022-10-21T05:30:55.136Z,6.57
2022-10-21T05:33:23.498Z,6.93
2022-10-21T05:36:01.126Z,6.33
2022-10-21T05:38:30.923Z,4.27
2022-10-21T05:40:59.438Z,9.47
2022-10-21T05:43:28.482Z,5.60
2022-10-21T05:45:56.909Z,5.70
2022-10-21T05:48:25.562Z,5.67
2022-10-21T05:50:55.164Z,8.03
2022-10-21T05:53:25.033Z,6.00
2022-10-21T05:55:58.368Z,7.13
2022-10-21T05:58:27.093Z,5.27
2022-10-21T06:00:56.319Z,6.73
2022-10-21T06:03:25.311Z,7.87
2022-10-21T06:05:53.379Z,5.87
2022-10-21T06:08:21.485Z,5.67
2022-10-21T06:10:50.830Z,4.93
2022-10-21T06:13:20.672Z,5.93
2022-10-21T06:15:51.129Z,5.87
2022-10-21T06:18:19.729Z,5.60
2022-10-21T06:20:48.054Z,7.33
2022-10-21T06:23:16.492Z,10.63
2022-10-21T06:25:44.952Z,7.30
2022-10-21T06:28:13.457Z,8.27
2022-10-21T06:30:43.062Z,6.80
2022-10-21T06:33:11.819Z,6.73
2022-10-21T06:35:40.182Z,11.17
2022-10-21T06:38:08.757Z,6.23
2022-10-21T06:40:37.079Z,8.67
2022-10-21T06:43:05.771Z,8.20
2022-10-21T06:45:33.954Z,5.67
2022-10-21T06:48:03.805Z,6.50
2022-10-21T06:50:32.193Z,11.93
2022-10-21T06:53:00.397Z,7.43
2022-10-21T06:55:28.640Z,6.83
2022-10-21T06:57:56.981Z,10.27
2022-10-21T07:00:25.379Z,7.77
2022-10-21T07:02:53.848Z,9.03
2022-10-21T07:05:23.663Z,8.03
2022-10-21T07:07:52.509Z,7.03
2022-10-21T07:10:20.957Z,7.40
2022-10-21T07:12:49.275Z,11.40
2022-10-21T07:15:17.506Z,9.80
2022-10-21T07:17:45.714Z,6.57
2022-10-21T07:20:13.979Z,6.77
2022-10-21T07:22:43.807Z,10.77
2022-10-21T07:25:13.920Z,9.13
2022-10-21T07:27:44.754Z,10.27
2022-10-21T07:30:15.989Z,8.27
2022-10-21T07:32:44.516Z,10.87
2022-10-21T07:35:12.645Z,10.80
2022-10-21T07:37:41.555Z,13.23
2022-10-21T07:40:12.744Z,10.03
2022-10-21T07:42:41.166Z,9.60
2022-10-21T07:45:09.955Z,10.97
2022-10-21T07:47:38.693Z,8.50
2022-10-21T07:50:07.612Z,10.53
2022-10-21T07:52:39.536Z,7.60
2022-10-21T07:55:12.400Z,9.47
2022-10-21T07:57:41.132Z,11.27
2022-10-21T08:00:11.011Z,8.60
2022-10-21T08:02:40.124Z,10.53
2022-10-21T08:05:08.949Z,9.43
2022-10-21T08:07:37.212Z,8.03
2022-10-21T08:10:06.405Z,6.33
2022-10-21T08:12:37.353Z,11.13
2022-10-21T08:15:06.623Z,8.20
2022-10-21T08:17:34.839Z,6.77
2022-10-21T08:20:03.706Z,8.43
2022-10-21T08:22:32.188Z,7.43
2022-10-21T08:25:00.944Z,7.33
2022-10-21T08:27:30.235Z,14.23
2022-10-21T08:30:00.192Z,8.63
2022-10-21T08:32:28.350Z,7.83
2022-10-21T08:34:57.082Z,9.30
2022-10-21T08:37:25.763Z,13.43
2022-10-21T08:39:54.064Z,9.33
2022-10-21T08:42:22.619Z,8.87
2022-10-21T08:44:56.949Z,10.33
2022-10-21T08:47:35.454Z,7.77
2022-10-21T08:50:06.693Z,9.83
2022-10-21T08:52:48.690Z,8.53
2022-10-21T08:55:21.666Z,10.23
2022-10-21T08:57:51.036Z,9.73
2022-10-21T09:00:22.091Z,7.13
2022-10-21T09:03:01.970Z,14.27
2022-10-21T09:06:08.800Z,8.07
2022-10-21T09:08:45.506Z,8.30
2022-10-21T09:11:22.608Z,8.70
2022-10-21T09:14:15.425Z,12.90
2022-10-21T09:16:53.047Z,8.57
2022-10-21T09:19:37.495Z,8.10
2022-10-21T09:22:41.041Z,9.40
2022-10-21T09:25:19.947Z,12.80
2022-10-21T09:27:57.375Z,8.97
2022-10-21T09:30:26.415Z,8.10
2022-10-21T09:32:59.673Z,11.23
2022-10-21T09:35:36.007Z,8.70
2022-10-21T09:38:12.178Z,9.33
2022-10-21T09:40:40.933Z,9.07
2022-10-21T09:43:18.146Z,9.73
2022-10-21T09:45:47.799Z,8.87
2022-10-21T09:48:28.841Z,7.17
2022-10-21T09:51:02.701Z,9.83
2022-10-21T09:53:36.006Z,9.50
2022-10-21T09:56:08.657Z,8.93
2022-10-21T09:58:49.796Z,8.73
2022-10-21T10:01:20.169Z,7.03
2022-10-21T10:03:50.987Z,7.43
2022-10-21T10:06:36.891Z,6.87
2022-10-21T10:09:27.736Z,7.80
2022-10-21T10:11:58.671Z,7.77
2022-10-21T10:14:35.783Z,6.53
2022-10-21T10:17:29.306Z,8.20
2022-10-21T10:20:20.180Z,10.33
2022-10-21T10:23:09.852Z,7.23
2022-10-21T10:25:41.222Z,7.50
2022-10-21T10:28:21.094Z,8.20
2022-10-21T10:30:51.617Z,7.03
2022-10-21T10:33:22.256Z,6.80
2022-10-21T10:35:53.054Z,8.17
2022-10-21T10:38:28.239Z,6.30
2022-10-21T10:41:05.871Z,8.80
2022-10-21T10:43:36.059Z,9.03
2022-10-21T10:46:06.671Z,9.23
2022-10-21T10:48:38.677Z,7.43
2022-10-21T10:51:09.410Z,9.60
2022-10-21T10:53:39.838Z,8.60
2022-10-21T10:56:16.986Z,8.87
2022-10-21T10:58:49.608Z,9.37
2022-10-21T11:01:27.202Z,6.97
2022-10-21T11:03:59.560Z,7.73
2022-10-21T11:06:36.623Z,10.27
2022-10-21T11:09:08.692Z,9.47
2022-10-21T11:11:41.373Z,9.87
2022-10-21T11:14:17.608Z,9.80
2022-10-21T11:17:01.351Z,16.03
2022-10-21T11:19:37.158Z,9.50
2022-10-21T11:22:14.161Z,10.90
2022-10-21T11:25:04.606Z,10.40
2022-10-21T11:27:55.024Z,7.73
2022-10-21T11:30:30.104Z,7.83
2022-10-21T11:33:09.293Z,10.03
2022-10-21T11:35:47.800Z,8.60
2022-10-21T11:38:45.120Z,8.93
2022-10-21T11:41:28.240Z,9.17
2022-10-21T11:44:08.426Z,8.47
2022-10-21T11:46:47.350Z,12.27
2022-10-21T11:49:29.136Z,9.10
2022-10-21T11:52:08.576Z,8.77
2022-10-21T11:55:10.043Z,10.50
2022-10-21T11:57:51.450Z,11.37
2022-10-21T12:00:22.491Z,9.90
2022-10-21T12:03:14.828Z,10.23
2022-10-21T12:05:52.825Z,10.30
2022-10-21T12:08:27.507Z,13.30
2022-10-21T12:11:00.645Z,10.07
2022-10-21T12:13:34.587Z,9.10
2022-10-21T12:16:08.008Z,8.27
2022-10-21T12:18:43.225Z,11.47
2022-10-21T12:21:17.170Z,11.93
2022-10-21T12:23:49.231Z,8.37
2022-10-21T12:26:23.742Z,12.00
2022-10-21T12:29:00.364Z,10.23
2022-10-21T12:31:35.438Z,9.07
2022-10-21T12:34:04.735Z,9.43
2022-10-21T12:36:42.930Z,17.40
2022-10-21T12:39:39.897Z,11.97
2022-10-21T12:42:14.266Z,8.60
2022-10-21T12:44:47.820Z,8.73
2022-10-21T12:47:27.360Z,10.10
2022-10-21T12:50:07.929Z,9.80
2022-10-21T12:52:39.489Z,10.57
2022-10-21T12:55:19.638Z,15.83
2022-10-21T12:57:48.584Z,10.20
2022-10-21T13:00:55.862Z,11.30
2022-10-21T13:03:44.985Z,9.07
2022-10-21T13:06:14.363Z,9.17
2022-10-21T13:08:54.761Z,10.73
2022-10-21T13:11:25.769Z,10.00
2022-10-21T13:14:35.324Z,6.50
2022-10-21T13:17:30.266Z,10.20
2022-10-21T13:20:40.004Z,8.70
2022-10-21T13:23:31.815Z,6.73
2022-10-21T13:26:08.004Z,7.00
2022-10-21T13:28:36.153Z,10.37
2022-10-21T13:31:05.128Z,9.00
2022-10-21T13:33:38.061Z,7.53
2022-10-21T13:36:12.675Z,7.70
2022-10-21T13:38:50.734Z,7.67
2022-10-21T13:41:24.498Z,6.70
2022-10-21T13:43:56.844Z,7.80
2022-10-21T13:46:28.151Z,7.53
2022-10-21T13:49:00.911Z,7.03
2022-10-21T13:51:30.843Z,6.93
2022-10-21T13:54:00.739Z,7.77
2022-10-21T13:56:32.130Z,6.80
2022-10-21T13:59:00.427Z,7.17
2022-10-21T14:01:30.950Z,6.20
2022-10-21T14:04:16.250Z,6.40
2022-10-21T14:06:49.074Z,9.50
2022-10-21T14:09:20.920Z,8.33
2022-10-21T14:11:53.882Z,9.20
2022-10-21T14:14:25.885Z,8.00
2022-10-21T14:16:57.899Z,8.37
2022-10-21T14:19:31.814Z,8.33
2022-10-21T14:22:02.231Z,10.17
2022-10-21T14:24:37.218Z,8.30
2022-10-21T14:27:06.292Z,7.27
2022-10-21T14:29:37.011Z,12.30
2022-10-21T14:32:07.113Z,7.33
2022-10-21T14:34:37.981Z,6.00
2022-10-21T14:37:20.413Z,7.50
2022-10-21T14:39:49.044Z,7.30
2022-10-21T14:42:21.342Z,5.70
2022-10-21T14:44:53.547Z,5.93
2022-10-21T14:47:25.887Z,8.40
2022-10-21T14:49:59.862Z,6.30
2022-10-21T14:52:34.805Z,6.63
2022-10-21T14:55:09.896Z,6.43
2022-10-21T14:57:43.547Z,8.43
2022-10-21T15:00:28.920Z,8.70
2022-10-21T15:02:59.601Z,8.17
2022-10-21T15:05:36.850Z,4.60
2022-10-21T15:08:29.495Z,6.83
2022-10-21T15:11:31.540Z,6.00
2022-10-21T15:14:32.159Z,7.60
2022-10-21T15:17:03.898Z,7.47
2022-10-21T15:19:44.522Z,6.67
2022-10-21T15:22:31.108Z,6.23
2022-10-21T15:25:06.035Z,6.30
2022-10-21T15:27:42.291Z,7.07
2022-10-21T15:30:18.928Z,8.80
2022-10-21T15:32:47.622Z,7.97
2022-10-21T15:35:17.939Z,8.60
2022-10-21T15:37:51.273Z,5.53
2022-10-21T15:40:21.146Z,6.33
2022-10-21T15:42:50.029Z,7.93
2022-10-21T15:45:22.528Z,11.37
2022-10-21T15:47:52.625Z,7.53
2022-10-21T15:50:24.029Z,8.77
2022-10-21T15:55:22.733Z,6.53
2022-10-21T15:57:51.576Z,6.73
2022-10-21T16:00:22.531Z,7.27
2022-10-21T16:02:52.775Z,11.53
2022-10-21T16:05:21.698Z,8.50
2022-10-21T16:07:50.039Z,6.87
2022-10-21T16:10:22.790Z,6.40
2022-10-21T16:12:51.432Z,9.37
2022-10-21T16:15:20.618Z,4.93
2022-10-21T16:17:51.963Z,7.03
2022-10-21T16:20:23.063Z,7.13
2022-10-21T16:22:51.355Z,11.30
2022-10-21T16:25:21.295Z,7.73
2022-10-21T16:27:56.366Z,7.37
2022-10-21T16:30:27.229Z,6.03
2022-10-21T16:32:55.856Z,9.23
2022-10-21T16:35:24.596Z,8.20
2022-10-21T16:37:53.708Z,6.20
2022-10-21T16:40:26.343Z,8.63
2022-10-21T16:42:55.459Z,7.03
2022-10-21T16:45:28.587Z,7.03
2022-10-21T16:47:59.288Z,9.03
2022-10-21T16:50:35.006Z,8.53
2022-10-21T16:53:04.485Z,6.23
2022-10-21T16:55:34.069Z,6.03
2022-10-21T16:58:02.745Z,11.80
2022-10-21T17:00:31.744Z,5.93
2022-10-21T17:03:03.865Z,6.57
2022-10-21T17:05:32.414Z,12.67
2022-10-21T17:08:00.573Z,6.97
2022-10-21T17:10:29.668Z,7.37
2022-10-21T17:13:00.339Z,5.77
2022-10-21T17:15:29.633Z,7.27
2022-10-21T17:17:59.260Z,5.47
2022-10-21T17:20:30.930Z,6.33
2022-10-21T17:23:00.100Z,6.73
2022-10-21T17:25:29.077Z,6.33
2022-10-21T17:27:59.041Z,5.80
2022-10-21T17:30:27.596Z,8.73
2022-10-21T17:32:55.863Z,8.03
2022-10-21T17:35:24.283Z,6.77
2022-10-21T17:37:53.704Z,9.37
2022-10-21T17:40:23.858Z,10.00
2022-10-21T17:42:52.663Z,8.30
2022-10-21T17:45:23.681Z,7.20
2022-10-21T17:47:53.351Z,5.97
2022-10-21T17:50:24.549Z,7.43
2022-10-21T17:52:53.598Z,6.50
2022-10-21T17:55:22.211Z,8.27
2022-10-21T17:57:50.646Z,7.33
2022-10-21T18:00:19.019Z,8.43
2022-10-21T18:02:49.311Z,5.70
2022-10-21T18:05:17.539Z,11.07
2022-10-21T18:07:45.756Z,8.90
2022-10-21T18:10:14.230Z,5.80
2022-10-21T18:12:42.959Z,6.90
2022-10-21T18:15:14.089Z,9.43
2022-10-21T18:17:43.269Z,6.30
2022-10-21T18:20:14.040Z,7.37
2022-10-21T18:22:42.762Z,6.13
2022-10-21T18:25:12.229Z,5.23
2022-10-21T18:27:41.326Z,4.77
2022-10-21T18:30:11.734Z,9.03
2022-10-21T18:32:40.769Z,5.90
2022-10-21T18:35:10.607Z,10.37
2022-10-21T18:37:40.577Z,6.07
2022-10-21T18:40:21.113Z,9.37
2022-10-21T18:42:49.550Z,10.37
2022-10-21T18:45:18.049Z,7.63
2022-10-21T18:47:47.537Z,6.93
2022-10-21T18:50:16.264Z,7.30
2022-10-21T18:52:45.786Z,6.73
2022-10-21T18:55:14.087Z,7.10
2022-10-21T18:57:43.058Z,5.73
2022-10-21T19:00:12.160Z,6.73
2022-10-21T19:02:40.472Z,5.07
2022-10-21T19:05:10.199Z,7.37
2022-10-21T19:07:40.216Z,5.23
2022-10-21T19:10:14.148Z,5.80
2022-10-21T19:12:42.605Z,5.70
2022-10-21T19:15:11.827Z,5.73
2022-10-21T19:17:42.383Z,6.37
2022-10-21T19:20:14.691Z,9.87
2022-10-21T19:22:43.368Z,5.77
2022-10-21T19:25:12.938Z,5.23
2022-10-21T19:27:43.177Z,8.03
2022-10-21T19:30:15.182Z,6.03
2022-10-21T19:32:43.343Z,5.90
2022-10-21T19:35:12.922Z,6.53
2022-10-21T19:37:43.940Z,7.33
2022-10-21T19:40:13.886Z,7.43
2022-10-21T19:42:42.438Z,7.30
2022-10-21T19:45:17.090Z,9.50
2022-10-21T19:47:45.586Z,5.60
2022-10-21T19:50:14.143Z,8.23
2022-10-21T19:52:42.733Z,6.63
2022-10-21T19:55:16.533Z,6.40
2022-10-21T19:57:45.074Z,6.23
2022-10-21T20:00:14.028Z,5.40
2022-10-21T20:02:42.741Z,5.60
2022-10-21T20:05:11.695Z,7.63
2022-10-21T20:07:41.630Z,6.10
2022-10-21T20:10:11.322Z,7.80
2022-10-21T20:12:41.831Z,7.63
2022-10-21T20:15:11.780Z,6.80
2022-10-21T20:17:40.058Z,6.57
2022-10-21T20:20:08.741Z,8.70
2022-10-21T20:22:37.137Z,7.37
2022-10-21T20:25:06.258Z,6.23
2022-10-21T20:27:34.633Z,7.40
2022-10-21T20:30:04.605Z,7.50
2022-10-21T20:32:33.944Z,9.57
2022-10-21T20:35:02.216Z,7.40
2022-10-21T20:37:30.523Z,8.43
2022-10-21T20:39:58.756Z,7.87
2022-10-21T20:42:26.921Z,8.23
2022-10-21T20:44:55.758Z,8.13
2022-10-21T20:47:27.565Z,7.20
2022-10-21T20:49:58.541Z,7.40
2022-10-21T20:52:26.599Z,8.90
2022-10-21T20:54:55.630Z,7.63
2022-10-21T20:57:23.919Z,8.77
2022-10-21T20:59:52.005Z,10.87
2022-10-21T21:02:20.058Z,10.87
2022-10-21T21:04:50.169Z,7.50
2022-10-21T21:07:18.250Z,7.67
2022-10-21T21:10:01.661Z,8.50
2022-10-21T21:12:32.438Z,8.30
2022-10-21T21:15:00.532Z,7.00
2022-10-21T21:17:29.090Z,7.83
2022-10-21T21:19:58.937Z,7.03
2022-10-21T21:22:27.358Z,7.77
2022-10-21T21:24:55.448Z,7.17
2022-10-21T21:27:23.761Z,5.87
2022-10-21T21:29:51.990Z,9.40
2022-10-21T21:32:20.137Z,8.87
2022-10-21T21:34:54.537Z,7.70
2022-10-21T21:37:24.309Z,6.47
2022-10-21T21:39:53.057Z,7.17
2022-10-21T21:42:21.412Z,7.27
2022-10-21T21:44:50.081Z,7.97
2022-10-21T21:47:18.253Z,6.80
2022-10-21T21:49:46.502Z,9.00
2022-10-21T21:52:15.562Z,11.20
2022-10-21T21:54:45.209Z,7.70
2022-10-21T21:57:27.416Z,7.43
2022-10-21T21:59:56.646Z,7.90
2022-10-21T22:02:24.828Z,9.00
2022-10-21T22:04:52.894Z,7.10
2022-10-21T22:07:21.346Z,8.63
2022-10-21T22:09:51.046Z,7.77
2022-10-21T22:12:22.322Z,8.07
2022-10-21T22:14:51.720Z,8.60
2022-10-21T22:17:19.958Z,8.20
2022-10-21T22:19:52.912Z,9.10
2022-10-21T22:22:22.167Z,7.80
2022-10-21T22:24:51.740Z,8.37
2022-10-21T22:27:20.251Z,14.00
2022-10-21T22:29:48.680Z,9.00
2022-10-21T22:32:17.628Z,9.60
2022-10-21T22:34:45.705Z,8.97
2022-10-21T22:37:14.250Z,9.63
2022-10-21T22:39:42.253Z,9.83
2022-10-21T22:42:11.641Z,7.80
2022-10-21T22:44:42.499Z,8.40
2022-10-21T22:47:13.254Z,7.67
2022-10-21T22:49:43.994Z,8.70
2022-10-21T22:52:12.061Z,8.07
2022-10-21T22:54:50.240Z,8.10
2022-10-21T22:57:20.048Z,6.07
2022-10-21T22:59:52.901Z,7.80
2022-10-21T23:02:21.678Z,8.47
2022-10-21T23:04:49.777Z,8.17
2022-10-21T23:07:17.882Z,7.93
2022-10-21T23:09:46.467Z,8.03
2022-10-21T23:12:15.091Z,8.33
2022-10-21T23:14:44.666Z,8.03
2022-10-21T23:17:13.008Z,9.07
2022-10-21T23:19:44.046Z,8.63
2022-10-21T23:22:12.214Z,7.93
2022-10-21T23:24:40.632Z,6.57
2022-10-21T23:27:08.940Z,6.23
2022-10-21T23:29:37.114Z,6.60
2022-10-21T23:32:07.116Z,6.03
2022-10-21T23:34:35.194Z,7.07
2022-10-21T23:37:03.415Z,5.20
2022-10-21T23:39:31.685Z,5.90
2022-10-21T23:41:59.975Z,6.20
2022-10-21T23:44:29.477Z,5.77
2022-10-21T23:46:57.972Z,10.43
2022-10-21T23:49:28.243Z,6.10
2022-10-21T23:51:56.547Z,6.83
2022-10-21T23:54:24.992Z,5.70
2022-10-21T23:56:53.407Z,6.30
2022-10-21T23:59:22.153Z,5.63
